Time;durP1;ratioP1;P1;durP2;ratioP2;P2;SDS_P1;SDS_P2;PMS_P1;PMS_P2;Temp;Humidity;BMP_temperature;BMP_pressure;BME280_temperature;BME280_humidity;BME280_pressure;Samples;Min_cycle;Max_cycle;Signal;HPM_P1;HPM_P2
2022/01/22 00:00:18;;;;;;;2.22;1.38;;;20.70;47.60;;;;;;5100599;28;20051;-48
2022/01/22 00:02:45;;;;;;;1.30;1.20;;;20.70;47.60;;;;;;5083774;28;20149;-47
2022/01/22 00:05:11;;;;;;;1.83;1.63;;;20.70;47.60;;;;;;5083111;28;20280;-47
2022/01/22 00:07:37;;;;;;;1.80;1.33;;;20.70;47.60;;;;;;5083314;28;20036;-46
2022/01/22 00:10:07;;;;;;;1.73;1.45;;;20.70;47.60;;;;;;5063932;28;20035;-47
2022/01/22 00:15:10;;;;;;;1.30;1.20;;;20.80;47.30;;;;;;5097942;28;20059;-46
2022/01/22 00:17:36;;;;;;;1.58;1.30;;;20.80;47.40;;;;;;5103584;28;20084;-46
2022/01/22 00:20:03;;;;;;;1.75;1.33;;;20.70;47.30;;;;;;5094796;28;20029;-47
2022/01/22 00:22:32;;;;;;;;;;;20.70;47.30;;;;;;5083507;28;20036;-47
2022/01/22 00:25:00;;;;;;;1.55;1.40;;;20.70;47.30;;;;;;5096696;28;19908;-45
2022/01/22 00:27:27;;;;;;;1.48;1.30;;;20.70;47.30;;;;;;5098924;28;20050;-46
2022/01/22 00:29:53;;;;;;;1.83;1.38;;;20.70;47.30;;;;;;5103210;28;20028;-46
2022/01/22 00:32:19;;;;;;;1.92;1.40;;;20.80;47.50;;;;;;5063301;28;20079;-47
2022/01/22 00:34:45;;;;;;;1.63;1.33;;;20.80;47.80;;;;;;5062484;28;20036;-46
2022/01/22 00:37:11;;;;;;;1.38;1.15;;;20.80;47.20;;;;;;5062636;28;20025;-47
2022/01/22 00:39:37;;;;;;;1.40;1.27;;;20.70;47.80;;;;;;5062544;28;20056;-47
2022/01/22 00:42:10;;;;;;;1.17;1.08;;;20.70;47.10;;;;;;5062490;28;20049;-45
2022/01/22 00:44:36;;;;;;;1.23;1.13;;;20.70;47.20;;;;;;5062321;28;20037;-46
2022/01/22 00:47:02;;;;;;;1.75;1.40;;;20.70;47.30;;;;;;5062747;28;20025;-45
2022/01/22 00:49:29;;;;;;;1.55;1.30;;;20.70;47.30;;;;;;5066208;28;20028;-46
2022/01/22 00:51:55;;;;;;;1.73;1.33;;;20.80;47.30;;;;;;5082298;28;20024;-46
2022/01/22 00:54:22;;;;;;;1.45;0.82;;;20.80;47.20;;;;;;5082937;28;20800;-47
2022/01/22 00:56:48;;;;;;;1.77;1.40;;;20.80;47.20;;;;;;5082670;28;20024;-45
2022/01/22 00:59:14;;;;;;;1.63;1.30;;;20.80;47.20;;;;;;5082518;28;20424;-46
2022/01/22 01:01:40;;;;;;;1.50;1.40;;;20.70;47.20;;;;;;5068107;28;20676;-47
2022/01/22 01:04:09;;;;;;;1.45;1.35;;;20.70;47.20;;;;;;5062517;28;20032;-45
2022/01/22 01:06:35;;;;;;;2.03;1.45;;;20.70;47.20;;;;;;5062134;28;20024;-46
2022/01/22 01:09:03;;;;;;;1.67;1.40;;;20.70;47.30;;;;;;5062501;28;20036;-47
2022/01/22 01:11:31;;;;;;;1.25;1.15;;;20.80;47.30;;;;;;5062153;28;20060;-48
2022/01/22 01:14:01;;;;;;;1.42;1.20;;;20.90;47.30;;;;;;5062041;28;20049;-45
2022/01/22 01:17:34;;;;;;;1.52;1.30;;;20.80;47.80;;;;;;5062442;28;20025;-45
2022/01/22 01:33:12;;;;;;;1.85;1.55;;;20.80;47.20;;;;;;5068780;28;20032;-46
2022/01/22 01:35:40;;;;;;;1.33;1.23;;;20.80;47.20;;;;;;5069003;28;20064;-46
2022/01/22 01:38:07;;;;;;;1.52;1.27;;;20.80;47.20;;;;;;5068247;28;20505;-46
2022/01/22 01:40:36;;;;;;;;;;;20.80;47.10;;;;;;5069123;28;20033;-45
2022/01/22 01:43:08;;;;;;;1.70;1.60;;;20.70;47.10;;;;;;5068836;28;19974;-46
2022/01/22 01:45:35;;;;;;;2.28;1.65;;;20.70;47.20;;;;;;5068641;28;20112;-46
2022/01/22 01:48:06;;;;;;;2.13;1.80;;;20.80;47.30;;;;;;5068903;28;20576;-46
2022/01/22 01:50:35;;;;;;;1.70;1.55;;;20.80;47.20;;;;;;5080701;28;20036;-45
2022/01/22 01:53:12;;;;;;;2.63;1.70;;;20.80;47.20;;;;;;5088570;28;20058;-46
2022/01/22 01:58:14;;;;;;;2.03;1.80;;;20.80;47.10;;;;;;5109157;28;20032;-45
2022/01/22 02:00:40;;;;;;;2.45;2.03;;;20.70;47.10;;;;;;5096153;28;20025;-47
2022/01/22 02:03:08;;;;;;;1.65;1.55;;;20.70;47.10;;;;;;5050516;28;20449;-47
2022/01/22 02:05:35;;;;;;;2.17;1.98;;;20.70;47.20;;;;;;5064461;28;20029;-45
2022/01/22 02:08:01;;;;;;;2.30;1.60;;;20.80;47.20;;;;;;5088548;28;20078;-47
2022/01/22 02:10:31;;;;;;;1.60;1.50;;;20.80;47.10;;;;;;5088768;28;20055;-45
2022/01/22 02:14:03;;;;;;;1.70;1.48;;;20.80;47.10;;;;;;5088068;28;20047;-45
2022/01/22 02:24:08;;;;;;;2.90;1.85;;;20.70;47.20;;;;;;5094100;28;20052;-45
2022/01/22 02:26:35;;;;;;;2.42;1.92;;;20.80;47.30;;;;;;5088487;28;20029;-45
2022/01/22 02:29:01;;;;;;;1.90;1.70;;;20.80;47.10;;;;;;5088309;28;20069;-47
2022/01/22 02:31:37;;;;;;;2.05;1.70;;;20.80;47.10;;;;;;5090813;28;20039;-47
2022/01/22 02:36:38;;;;;;;1.95;1.63;;;20.70;47.10;;;;;;5065261;28;20474;-45
2022/01/22 02:39:19;;;;;;;2.10;1.70;;;20.70;47.00;;;;;;5065123;28;20052;-45
2022/01/22 02:41:47;;;;;;;1.73;1.63;;;20.70;47.10;;;;;;5064870;28;20033;-46
2022/01/22 02:44:25;;;;;;;2.15;1.85;;;20.70;47.20;;;;;;5065185;28;20840;-45
2022/01/22 02:46:51;;;;;;;2.10;1.80;;;20.80;47.20;;;;;;5065170;28;20465;-47
2022/01/22 02:49:17;;;;;;;1.80;1.60;;;20.80;47.10;;;;;;5066355;28;20033;-46
2022/01/22 02:51:43;;;;;;;2.00;1.50;;;20.80;47.10;;;;;;5084602;28;20036;-46
2022/01/22 02:54:09;;;;;;;1.70;1.60;;;20.70;47.10;;;;;;5084873;28;20104;-45
2022/01/22 02:56:36;;;;;;;2.33;1.90;;;20.70;47.10;;;;;;5084776;28;20142;-46
2022/01/22 02:59:02;;;;;;;2.42;1.85;;;20.70;47.20;;;;;;5085152;28;20127;-48
2022/01/22 03:01:28;;;;;;;2.17;1.73;;;20.70;47.20;;;;;;5071761;28;20033;-45
2022/01/22 03:03:54;;;;;;;2.45;1.85;;;20.80;47.20;;;;;;5064634;28;20087;-46
2022/01/22 03:06:20;;;;;;;2.05;1.83;;;20.80;47.10;;;;;;5084440;28;20025;-46
2022/01/22 03:08:47;;;;;;;2.45;1.67;;;20.80;47.10;;;;;;5084334;28;20102;-47
2022/01/22 03:11:19;;;;;;;;;;;20.70;47.00;;;;;;5085143;28;20056;-45
2022/01/22 03:14:32;;;;;;;2.38;1.83;;;20.70;47.00;;;;;;5083973;28;19916;-46
2022/01/22 03:16:55;;;;;;;1.80;1.70;;;20.70;47.00;;;;;;5084439;28;20032;-45
2022/01/22 03:20:04;;;;;;;2.15;1.95;;;20.60;47.00;;;;;;5084523;28;20029;-47
2022/01/22 03:22:28;;;;;;;2.03;1.75;;;20.60;47.10;;;;;;5084023;28;20028;-45
2022/01/22 03:27:39;;;;;;;1.77;1.58;;;20.50;46.90;;;;;;5084529;28;20070;-45
2022/01/22 03:30:05;;;;;;;2.00;1.75;;;20.50;46.90;;;;;;5080917;28;20029;-44
2022/01/22 03:32:38;;;;;;;1.75;1.63;;;20.40;46.90;;;;;;5058105;28;20060;-45
2022/01/22 03:35:23;;;;;;;3.00;2.05;;;20.40;46.90;;;;;;5073409;28;20147;-45
2022/01/22 03:37:52;;;;;;;2.60;1.85;;;20.40;46.90;;;;;;5083967;28;20029;-46
2022/01/22 03:40:22;;;;;;;2.10;1.88;;;20.30;46.90;;;;;;5084022;28;20032;-45
2022/01/22 03:42:49;;;;;;;2.63;2.20;;;20.20;46.90;;;;;;5083445;28;20055;-46
2022/01/22 03:45:15;;;;;;;2.13;1.83;;;20.20;46.90;;;;;;5083598;28;20436;-45
2022/01/22 03:47:41;;;;;;;2.25;2.03;;;20.20;46.90;;;;;;5084061;28;20017;-45
2022/01/22 03:50:08;;;;;;;2.40;2.10;;;20.20;47.00;;;;;;5074750;28;20032;-46
2022/01/22 03:52:34;;;;;;;3.35;2.00;;;20.10;46.90;;;;;;5063544;28;20032;-44
2022/01/22 03:55:01;;;;;;;2.38;1.92;;;20.10;46.90;;;;;;5079280;28;20052;-46
2022/01/22 03:57:27;;;;;;;1.45;1.35;;;20.00;46.90;;;;;;5063753;28;20021;-46
2022/01/22 03:59:55;;;;;;;3.60;2.20;;;20.00;47.00;;;;;;5078547;28;20037;-45
2022/01/22 04:05:06;;;;;;;2.60;2.15;;;19.90;47.00;;;;;;5073865;28;20036;-46
2022/01/22 04:10:06;;;;;;;2.90;2.55;;;19.80;47.00;;;;;;5081997;28;20134;-44
2022/01/22 04:12:58;;;;;;;3.05;2.00;;;19.70;47.00;;;;;;5098355;28;20052;-45
2022/01/22 04:15:26;;;;;;;2.65;2.10;;;19.70;47.00;;;;;;5103157;28;20055;-44
2022/01/22 04:26:28;;;;;;;3.17;2.60;;;19.60;47.20;;;;;;5103033;28;20064;-45
2022/01/22 04:28:52;;;;;;;2.75;2.42;;;19.50;47.30;;;;;;5101374;28;20035;-45
2022/01/22 04:31:19;;;;;;;2.90;2.42;;;19.40;47.30;;;;;;5088470;28;20029;-45
2022/01/22 04:33:45;;;;;;;;;;;19.40;47.30;;;;;;5083188;28;20039;-45
2022/01/22 04:36:11;;;;;;;2.53;2.28;;;19.40;47.30;;;;;;5064401;28;19908;-45
2022/01/22 04:38:38;;;;;;;3.75;2.50;;;19.30;47.30;;;;;;5063125;28;20036;-45
2022/01/22 04:41:05;;;;;;;2.53;2.33;;;19.30;47.40;;;;;;5062886;28;20469;-45
2022/01/22 04:43:33;;;;;;;3.35;2.55;;;19.20;47.40;;;;;;5062916;28;20036;-46
2022/01/22 04:46:13;;;;;;;3.22;2.55;;;19.20;47.40;;;;;;5062813;28;20021;-45
2022/01/22 04:56:36;;;;;;;4.00;3.08;;;19.00;47.60;;;;;;5082247;28;20397;-45
2022/01/22 04:59:02;;;;;;;3.35;2.72;;;19.00;47.60;;;;;;5082826;28;20039;-45
2022/01/22 05:01:28;;;;;;;3.30;2.75;;;18.90;47.60;;;;;;5081665;28;20024;-45
2022/01/22 05:03:55;;;;;;;4.03;2.83;;;18.90;47.70;;;;;;5082781;28;20028;-45
2022/01/22 05:06:21;;;;;;;3.35;2.60;;;18.90;47.60;;;;;;5062800;28;20277;-46
2022/01/22 05:08:47;;;;;;;3.15;2.63;;;18.80;47.70;;;;;;5044694;28;20114;-45
2022/01/22 05:11:13;;;;;;;3.45;2.97;;;18.80;47.70;;;;;;5062468;28;20117;-45
2022/01/22 05:13:39;;;;;;;3.33;2.60;;;18.80;47.80;;;;;;5062085;28;20508;-45
2022/01/22 05:16:05;;;;;;;4.38;2.60;;;18.70;47.80;;;;;;5062398;28;20028;-46
2022/01/22 05:18:37;;;;;;;3.33;2.67;;;18.70;47.80;;;;;;5062198;28;20101;-46
2022/01/22 05:21:09;;;;;;;3.08;2.78;;;18.60;47.80;;;;;;5079049;28;20039;-45
2022/01/22 05:23:36;;;;;;;3.10;2.80;;;18.60;47.90;;;;;;5082356;28;20063;-44
2022/01/22 05:26:07;;;;;;;3.47;2.78;;;18.60;48.00;;;;;;5064320;28;20028;-46
2022/01/22 05:29:14;;;;;;;3.47;2.72;;;18.50;47.90;;;;;;5082337;28;20048;-45
2022/01/22 05:31:43;;;;;;;3.33;3.03;;;18.50;48.00;;;;;;5068201;28;20041;-44
2022/01/22 05:37:01;;;;;;;3.63;3.30;;;18.40;48.00;;;;;;5097134;28;20025;-45
2022/01/22 05:39:29;;;;;;;3.13;2.78;;;18.40;48.20;;;;;;5102371;28;20039;-45
2022/01/22 05:41:56;;;;;;;3.85;3.20;;;18.30;48.10;;;;;;5102723;28;20020;-44
2022/01/22 05:44:22;;;;;;;4.15;3.15;;;18.30;48.20;;;;;;5102427;28;20575;-45
2022/01/22 05:46:50;;;;;;;3.63;3.20;;;18.30;48.20;;;;;;5102283;28;20020;-45
2022/01/22 05:49:18;;;;;;;4.45;3.50;;;18.30;48.20;;;;;;5066139;28;20028;-44
2022/01/22 05:51:46;;;;;;;4.30;3.33;;;18.20;48.20;;;;;;5082156;28;20032;-45
2022/01/22 05:54:43;;;;;;;3.60;3.00;;;18.20;48.20;;;;;;5081686;28;20096;-45
2022/01/22 05:59:45;;;;;;;3.33;3.03;;;18.10;48.30;;;;;;5082273;28;20575;-45
2022/01/22 06:02:16;;;;;;;3.35;3.00;;;18.10;48.30;;;;;;5086653;28;20042;-46
2022/01/22 06:04:42;;;;;;;4.10;3.53;;;18.00;48.40;;;;;;5096026;28;20115;-45
2022/01/22 06:07:09;;;;;;;4.20;3.37;;;18.00;48.40;;;;;;5064263;28;20088;-46
2022/01/22 06:09:38;;;;;;;4.85;3.40;;;17.90;48.30;;;;;;5087786;28;20029;-45
2022/01/22 06:14:31;;;;;;;5.38;3.42;;;17.90;48.50;;;;;;5105542;28;20044;-47
2022/01/22 06:16:57;;;;;;;3.53;3.10;;;17.80;48.50;;;;;;5106091;28;20085;-46
2022/01/22 06:19:23;;;;;;;3.90;3.50;;;17.80;48.50;;;;;;5103109;28;20493;-45
2022/01/22 06:21:52;;;;;;;3.75;3.35;;;17.80;48.50;;;;;;5099010;28;20772;-45
2022/01/22 06:24:22;;;;;;;3.65;3.03;;;17.70;48.60;;;;;;5105355;28;20028;-44
2022/01/22 06:26:48;;;;;;;4.53;3.40;;;17.70;48.70;;;;;;5089751;28;20027;-45
2022/01/22 06:29:14;;;;;;;3.85;3.22;;;17.60;48.70;;;;;;5085242;28;20025;-45
2022/01/22 06:31:40;;;;;;;4.72;3.55;;;17.60;48.70;;;;;;5070720;28;20049;-45
2022/01/22 06:34:06;;;;;;;3.90;3.50;;;17.60;48.80;;;;;;5066347;28;20140;-45
2022/01/22 06:39:19;;;;;;;4.25;3.85;;;17.50;48.80;;;;;;5077189;28;20082;-44
2022/01/22 06:41:46;;;;;;;4.30;3.60;;;17.40;48.90;;;;;;5085428;28;20047;-45
2022/01/22 06:44:24;;;;;;;4.38;3.70;;;17.40;49.00;;;;;;5085097;28;20020;-46
2022/01/22 06:46:52;;;;;;;4.03;3.58;;;17.40;49.00;;;;;;5085536;28;20066;-45
2022/01/22 06:49:18;;;;;;;3.92;3.42;;;17.30;49.00;;;;;;5084953;28;20025;-46
2022/01/22 06:51:44;;;;;;;4.07;3.30;;;17.30;49.10;;;;;;5085183;28;20020;-46
2022/01/22 06:54:11;;;;;;;4.40;3.70;;;17.20;49.10;;;;;;5085043;28;20048;-45
2022/01/22 06:56:38;;;;;;;4.80;3.85;;;17.20;49.10;;;;;;5085177;28;20123;-44
2022/01/22 06:59:06;;;;;;;4.30;3.50;;;17.10;49.20;;;;;;5085079;28;20055;-45
2022/01/22 07:01:32;;;;;;;5.00;3.47;;;17.10;49.20;;;;;;5064645;28;20029;-45
2022/01/22 07:03:58;;;;;;;4.47;3.53;;;17.10;49.20;;;;;;5064610;28;20025;-46
2022/01/22 07:06:24;;;;;;;4.05;3.33;;;17.10;49.20;;;;;;5064619;28;20051;-46
2022/01/22 07:08:50;;;;;;;4.15;3.53;;;17.10;49.20;;;;;;5064782;28;20025;-44
2022/01/22 07:11:17;;;;;;;3.85;3.42;;;17.00;49.20;;;;;;5064867;28;20055;-44
2022/01/22 07:13:43;;;;;;;3.88;3.28;;;17.00;49.30;;;;;;5064558;28;20049;-44
2022/01/22 07:16:09;;;;;;;3.95;3.42;;;16.90;49.40;;;;;;5063234;28;20025;-44
2022/01/22 07:18:35;;;;;;;4.22;3.22;;;16.90;49.40;;;;;;5064341;28;20021;-45
2022/01/22 07:21:23;;;;;;;3.63;3.33;;;16.90;49.50;;;;;;5064238;28;20029;-45
2022/01/22 07:26:14;;;;;;;3.67;3.38;;;16.80;49.50;;;;;;5063877;28;20021;-45
2022/01/22 07:28:41;;;;;;;4.20;3.28;;;16.80;49.50;;;;;;5064748;28;20048;-44
2022/01/22 07:31:07;;;;;;;3.33;2.83;;;16.70;49.60;;;;;;5065056;28;20029;-44
2022/01/22 07:33:36;;;;;;;4.25;2.90;;;16.70;49.60;;;;;;5064066;28;20048;-45
2022/01/22 07:36:06;;;;;;;3.28;2.92;;;16.70;49.70;;;;;;5081577;28;20036;-45
2022/01/22 07:38:37;;;;;;;3.08;2.78;;;16.70;49.70;;;;;;5084398;28;20043;-47
2022/01/22 07:41:04;;;;;;;3.72;2.80;;;16.60;49.70;;;;;;5084315;28;20036;-45
2022/01/22 07:43:30;;;;;;;4.15;3.00;;;16.60;49.70;;;;;;5084017;28;20016;-44
2022/01/22 07:45:57;;;;;;;2.95;2.65;;;16.60;49.70;;;;;;5084152;28;20123;-44
2022/01/22 07:48:23;;;;;;;3.42;2.67;;;16.50;49.70;;;;;;5084325;28;20025;-45
2022/01/22 07:50:49;;;;;;;3.22;2.45;;;16.50;49.80;;;;;;5084018;28;20031;-45
2022/01/22 07:53:15;;;;;;;3.17;2.58;;;16.50;49.90;;;;;;5083927;28;20541;-44
2022/01/22 07:55:41;;;;;;;2.88;2.40;;;16.40;49.80;;;;;;5084018;28;20066;-45
2022/01/22 07:58:07;;;;;;;2.78;2.38;;;16.40;49.90;;;;;;5084050;28;20082;-45
2022/01/22 08:00:33;;;;;;;3.47;2.60;;;16.40;49.90;;;;;;5081613;28;20036;-44
2022/01/22 08:02:59;;;;;;;3.20;2.33;;;16.30;50.00;;;;;;5084003;28;20020;-46
2022/01/22 08:05:25;;;;;;;3.65;2.60;;;16.30;50.10;;;;;;5083797;28;20513;-46
2022/01/22 08:07:51;;;;;;;2.95;2.50;;;16.30;50.00;;;;;;5085855;28;20111;-44
2022/01/22 08:10:18;;;;;;;2.65;2.40;;;16.20;50.00;;;;;;5065693;28;20024;-45
2022/01/22 08:12:48;;;;;;;3.00;2.70;;;16.20;50.00;;;;;;5072463;28;20056;-44
2022/01/22 08:15:16;;;;;;;3.03;2.60;;;16.20;50.10;;;;;;5103532;28;20055;-46
2022/01/22 08:17:42;;;;;;;2.75;2.38;;;16.20;50.10;;;;;;5107529;28;20023;-45
2022/01/22 08:20:12;;;;;;;2.22;1.95;;;16.30;50.20;;;;;;5104037;28;20035;-44
2022/01/22 08:22:38;;;;;;;3.20;2.13;;;16.30;50.10;;;;;;5103879;28;20074;-44
2022/01/22 08:25:04;;;;;;;2.42;2.10;;;16.30;50.10;;;;;;5103519;28;20032;-43
2022/01/22 08:29:57;;;;;;;2.60;2.22;;;16.10;50.20;;;;;;5108570;28;20028;-43
2022/01/22 08:37:42;;;;;;;2.00;1.80;;;16.10;50.10;;;;;;5083228;28;20086;-44
2022/01/22 08:40:09;;;;;;;2.15;1.85;;;16.20;50.20;;;;;;5083199;28;20023;-45
2022/01/22 08:42:36;;;;;;;2.15;1.63;;;16.20;50.20;;;;;;5083293;28;20429;-44
2022/01/22 08:45:02;;;;;;;1.70;1.50;;;16.20;50.10;;;;;;5083181;28;20028;-44
2022/01/22 08:47:28;;;;;;;2.40;2.00;;;16.10;50.20;;;;;;5082967;28;20078;-44
2022/01/22 08:49:54;;;;;;;2.25;2.00;;;16.10;50.20;;;;;;5090449;28;20084;-44
2022/01/22 08:52:25;;;;;;;1.67;1.50;;;16.10;50.30;;;;;;5101817;28;20023;-44
2022/01/22 08:54:51;;;;;;;2.90;1.80;;;16.10;50.20;;;;;;5103122;28;20032;-44
2022/01/22 08:57:18;;;;;;;1.77;1.35;;;16.10;50.40;;;;;;5103037;28;20078;-45
2022/01/22 08:59:44;;;;;;;1.80;1.60;;;16.10;50.30;;;;;;5101906;28;20032;-44
2022/01/22 09:02:11;;;;;;;1.83;1.60;;;16.10;50.40;;;;;;5084135;28;20128;-44
2022/01/22 09:04:37;;;;;;;2.80;1.73;;;16.10;50.40;;;;;;5088507;28;20269;-44
2022/01/22 09:07:03;;;;;;;1.92;1.73;;;16.10;50.40;;;;;;5118381;28;20016;-44
2022/01/22 09:09:29;;;;;;;1.95;1.75;;;16.10;50.50;;;;;;5102889;28;20039;-45
2022/01/22 09:11:55;;;;;;;1.95;1.70;;;16.00;50.40;;;;;;5103080;28;20107;-44
2022/01/22 09:14:22;;;;;;;2.40;1.98;;;16.00;50.40;;;;;;5102701;28;20048;-46
2022/01/22 09:16:48;;;;;;;2.00;1.67;;;16.00;50.60;;;;;;5102976;28;20051;-44
2022/01/22 09:19:15;;;;;;;1.65;1.52;;;16.10;50.60;;;;;;5103096;28;20024;-44
2022/01/22 09:21:45;;;;;;;1.40;1.25;;;16.10;50.60;;;;;;5102903;28;20027;-45
2022/01/22 09:24:12;;;;;;;2.35;1.52;;;16.10;50.60;;;;;;5102722;28;20035;-45
2022/01/22 09:26:39;;;;;;;2.28;1.40;;;16.10;50.60;;;;;;5102378;28;20024;-44
2022/01/22 09:29:05;;;;;;;1.77;1.60;;;16.10;50.60;;;;;;5103017;28;20066;-44
2022/01/22 09:31:31;;;;;;;1.88;1.40;;;16.00;50.50;;;;;;5089134;28;20032;-44
2022/01/22 09:33:59;;;;;;;2.00;1.70;;;16.00;50.50;;;;;;5082758;28;20043;-44
2022/01/22 09:36:26;;;;;;;1.73;1.50;;;16.00;50.90;;;;;;5082458;28;20111;-47
2022/01/22 09:38:52;;;;;;;1.45;1.35;;;16.10;50.80;;;;;;5082599;28;20033;-45
2022/01/22 09:41:19;;;;;;;1.45;1.35;;;16.20;51.10;;;;;;5081291;28;20028;-45
2022/01/22 09:43:45;;;;;;;1.42;0.80;;;16.30;51.30;;;;;;5094309;28;20028;-44
2022/01/22 09:46:11;;;;;;;2.00;1.27;;;16.40;51.40;;;;;;5106605;28;20036;-45
2022/01/22 09:48:41;;;;;;;1.30;1.20;;;16.50;51.50;;;;;;5106554;28;20028;-45
2022/01/22 09:51:08;;;;;;;1.23;1.13;;;16.70;51.60;;;;;;5106436;28;20028;-44
2022/01/22 09:53:34;;;;;;;1.38;1.00;;;16.80;51.70;;;;;;5106919;28;20036;-45
2022/01/22 09:56:00;;;;;;;1.83;0.95;;;16.80;51.90;;;;;;5106843;28;20030;-44
2022/01/22 09:58:27;;;;;;;1.30;1.10;;;17.00;52.00;;;;;;5106361;28;20051;-44
2022/01/22 10:00:53;;;;;;;1.38;1.05;;;17.10;51.90;;;;;;5105031;28;20102;-44
2022/01/22 10:03:20;;;;;;;1.20;1.10;;;17.20;51.90;;;;;;5106616;28;20050;-44
2022/01/22 10:05:46;;;;;;;;;;;17.30;51.90;;;;;;5091294;28;20092;-46
2022/01/22 10:08:32;;;;;;;1.30;1.20;;;17.50;52.10;;;;;;5105694;28;20392;-45
2022/01/22 10:11:00;;;;;;;1.15;0.90;;;17.60;52.00;;;;;;5108206;28;20032;-44
2022/01/22 10:13:42;;;;;;;0.98;0.88;;;17.70;51.90;;;;;;5120483;28;20048;-45
2022/01/22 10:16:13;;;;;;;1.13;0.90;;;17.90;52.00;;;;;;5106146;28;20024;-45
2022/01/22 10:18:40;;;;;;;1.90;0.98;;;18.10;51.70;;;;;;5104667;28;20024;-45
2022/01/22 10:21:13;;;;;;;0.82;0.80;;;18.20;51.60;;;;;;5106022;28;20028;-46
2022/01/22 10:23:39;;;;;;;1.08;0.80;;;18.30;51.50;;;;;;5105759;28;20083;-44
2022/01/22 10:26:12;;;;;;;1.00;0.85;;;18.40;51.50;;;;;;5120220;28;20019;-45
2022/01/22 10:28:48;;;;;;;1.00;0.90;;;18.50;51.40;;;;;;5126405;28;20051;-45
2022/01/22 10:31:21;;;;;;;1.38;0.80;;;18.70;51.30;;;;;;5115051;28;20066;-44
2022/01/22 10:34:07;;;;;;;1.13;0.93;;;18.70;51.20;;;;;;5106000;28;20130;-45
2022/01/22 10:36:33;;;;;;;1.05;0.95;;;18.90;51.00;;;;;;5105930;28;20081;-45
2022/01/22 10:38:59;;;;;;;1.05;0.75;;;19.00;50.80;;;;;;5105643;28;20031;-46
2022/01/22 10:41:52;;;;;;;0.88;0.82;;;19.20;50.70;;;;;;5105326;28;20941;-45
2022/01/22 10:44:32;;;;;;;0.80;0.75;;;19.30;50.50;;;;;;5103868;28;20036;-47
2022/01/22 10:47:04;;;;;;;1.15;1.05;;;19.40;50.70;;;;;;5104506;28;20043;-46
2022/01/22 10:49:30;;;;;;;0.98;0.70;;;19.50;50.70;;;;;;5105489;28;20043;-45
2022/01/22 10:51:59;;;;;;;1.00;1.00;;;19.60;50.70;;;;;;5105499;28;20047;-49
2022/01/22 10:54:30;;;;;;;0.93;0.88;;;19.70;50.30;;;;;;5104336;28;20028;-45
2022/01/22 10:57:15;;;;;;;0.77;0.70;;;19.90;50.20;;;;;;5105455;28;20028;-46
2022/01/22 10:59:46;;;;;;;0.75;0.70;;;20.00;50.10;;;;;;5104468;28;20039;-48
2022/01/22 11:02:14;;;;;;;0.90;0.80;;;20.10;50.00;;;;;;5104601;28;20032;-46
2022/01/22 11:04:41;;;;;;;0.85;0.75;;;20.20;49.80;;;;;;5099310;28;20031;-45
2022/01/22 11:07:09;;;;;;;0.77;0.70;;;20.30;49.70;;;;;;5093028;28;20054;-46
2022/01/22 11:09:35;;;;;;;0.93;0.70;;;20.50;49.50;;;;;;5104929;28;20035;-45
2022/01/22 11:12:03;;;;;;;0.90;0.68;;;20.60;49.50;;;;;;5105074;28;20608;-46
2022/01/22 11:14:32;;;;;;;0.93;0.80;;;20.60;49.30;;;;;;5105102;28;20047;-45
2022/01/22 11:16:58;;;;;;;1.05;0.80;;;20.80;49.10;;;;;;5104884;28;20024;-46
2022/01/22 11:19:32;;;;;;;0.80;0.70;;;20.80;49.20;;;;;;5104931;28;20685;-47
2022/01/22 11:22:05;;;;;;;0.93;0.75;;;20.70;48.50;;;;;;5105031;28;20389;-46
2022/01/22 11:24:34;;;;;;;0.80;0.77;;;20.70;48.70;;;;;;5103532;28;20123;-44
2022/01/22 11:27:00;;;;;;;1.00;0.88;;;20.60;48.70;;;;;;5104896;28;20088;-46
2022/01/22 11:29:29;;;;;;;0.80;0.70;;;20.60;48.60;;;;;;5103115;28;20055;-53
2022/01/22 11:31:55;;;;;;;1.45;0.90;;;20.60;48.60;;;;;;5102274;28;20024;-45
2022/01/22 11:34:31;;;;;;;1.02;0.80;;;20.60;48.60;;;;;;5103122;28;20031;-46
2022/01/22 11:37:07;;;;;;;0.77;0.77;;;20.60;48.40;;;;;;5119518;28;20040;-45
2022/01/22 11:39:33;;;;;;;1.20;0.98;;;20.60;48.30;;;;;;5120267;28;20035;-45
2022/01/22 11:41:59;;;;;;;1.40;1.25;;;20.60;48.10;;;;;;5104663;28;20023;-45
2022/01/22 11:44:34;;;;;;;1.25;1.00;;;20.60;48.00;;;;;;5104410;28;20743;-45
2022/01/22 11:47:14;;;;;;;1.23;0.95;;;20.60;48.00;;;;;;5104084;28;20030;-48
2022/01/22 11:49:41;;;;;;;1.08;0.98;;;20.60;47.80;;;;;;5104461;28;20039;-46
2022/01/22 11:52:12;;;;;;;1.13;1.03;;;20.60;47.80;;;;;;5104413;28;20035;-46
2022/01/22 11:54:55;;;;;;;1.10;1.00;;;20.60;47.60;;;;;;5104085;28;20028;-45
2022/01/22 11:57:21;;;;;;;1.00;0.90;;;20.60;47.60;;;;;;5104331;28;20025;-46
2022/01/22 11:59:47;;;;;;;1.42;1.25;;;20.50;47.50;;;;;;5104288;28;20028;-46
2022/01/22 12:02:16;;;;;;;1.40;1.30;;;20.60;47.60;;;;;;5103174;28;20027;-45
2022/01/22 12:04:44;;;;;;;1.23;0.90;;;20.60;47.60;;;;;;5109212;28;20514;-46
2022/01/22 12:07:11;;;;;;;1.38;1.10;;;20.60;47.60;;;;;;5115760;28;20028;-47
2022/01/22 12:09:52;;;;;;;1.20;1.10;;;20.70;47.50;;;;;;5103390;28;20024;-46
2022/01/22 12:15:34;;;;;;;1.35;1.08;;;20.60;47.40;;;;;;5091352;28;20051;-49
2022/01/22 12:18:03;;;;;;;1.42;1.10;;;20.60;47.40;;;;;;5105619;28;20020;-46
2022/01/22 12:23:18;;;;;;;1.27;1.15;;;20.60;47.30;;;;;;5103757;28;20028;-45
2022/01/22 12:25:44;;;;;;;1.25;1.13;;;20.60;47.30;;;;;;5103655;28;20043;-45
2022/01/22 12:28:14;;;;;;;1.38;1.27;;;20.60;47.40;;;;;;5103570;28;20113;-45
2022/01/22 12:30:48;;;;;;;1.40;1.25;;;20.70;47.30;;;;;;5099864;28;20091;-45
2022/01/22 12:33:30;;;;;;;1.05;0.90;;;20.70;47.30;;;;;;5082957;28;20049;-47
2022/01/22 12:36:01;;;;;;;1.25;1.02;;;20.70;47.30;;;;;;5083231;28;20029;-46
2022/01/22 12:41:14;;;;;;;1.33;1.20;;;20.60;47.10;;;;;;5083397;28;20091;-46
2022/01/22 12:43:43;;;;;;;1.23;1.13;;;20.60;47.20;;;;;;5091060;28;20035;-48
2022/01/22 12:46:09;;;;;;;1.30;1.10;;;20.60;47.30;;;;;;5103133;28;20020;-48
2022/01/22 12:48:38;;;;;;;1.70;1.40;;;20.70;47.90;;;;;;5103372;28;20032;-47
2022/01/22 12:51:06;;;;;;;1.40;1.30;;;20.70;47.20;;;;;;5102964;28;20028;-45
2022/01/22 12:53:33;;;;;;;1.40;1.08;;;20.70;47.70;;;;;;5103400;28;20433;-46
2022/01/22 12:58:39;;;;;;;1.30;1.20;;;20.60;47.00;;;;;;5103342;28;20032;-46
2022/01/22 13:01:09;;;;;;;1.75;1.40;;;20.60;47.10;;;;;;5101936;28;20032;-46
2022/01/22 13:03:42;;;;;;;1.27;1.17;;;20.60;47.10;;;;;;5103202;28;20032;-47
2022/01/22 13:06:08;;;;;;;1.50;1.30;;;20.70;47.10;;;;;;5084282;28;20479;-45
2022/01/22 13:08:36;;;;;;;1.30;1.20;;;20.60;47.00;;;;;;5103072;28;20028;-45
2022/01/22 13:11:03;;;;;;;1.52;1.17;;;20.60;47.00;;;;;;5102867;28;20058;-45
2022/01/22 13:13:30;;;;;;;1.30;1.00;;;20.60;46.90;;;;;;5102325;28;20107;-45
2022/01/22 13:16:07;;;;;;;1.35;1.25;;;20.60;46.90;;;;;;5103021;28;20024;-46
2022/01/22 13:18:56;;;;;;;2.13;1.50;;;20.50;46.90;;;;;;5102146;28;20061;-45
2022/01/22 13:21:23;;;;;;;1.50;1.30;;;20.50;46.90;;;;;;5102770;28;20048;-45
2022/01/22 13:24:04;;;;;;;1.58;1.30;;;20.40;46.80;;;;;;5102646;28;20035;-45
2022/01/22 13:26:59;;;;;;;1.80;1.52;;;20.40;46.90;;;;;;5102811;28;20032;-45
2022/01/22 13:29:27;;;;;;;1.50;1.38;;;20.30;46.80;;;;;;5102756;28;20765;-48
2022/01/22 13:32:10;;;;;;;1.60;1.50;;;20.30;46.80;;;;;;5087375;28;20032;-47
2022/01/22 13:34:53;;;;;;;1.75;1.45;;;20.20;46.70;;;;;;5082302;28;20033;-45
2022/01/22 13:37:58;;;;;;;1.95;1.75;;;20.20;46.70;;;;;;5082309;28;20039;-45
2022/01/22 13:40:38;;;;;;;1.58;1.42;;;20.10;46.70;;;;;;5082402;28;20036;-45
2022/01/22 13:48:33;;;;;;;1.90;1.70;;;20.00;46.60;;;;;;5102633;28;20026;-46
2022/01/22 13:51:00;;;;;;;2.08;1.65;;;19.90;46.60;;;;;;5102627;28;20028;-47
2022/01/22 13:53:26;;;;;;;;;;;19.90;46.70;;;;;;5102753;28;20036;-45
2022/01/22 13:56:08;;;;;;;2.05;1.65;;;19.80;46.70;;;;;;5102522;28;19930;-45
2022/01/22 13:58:35;;;;;;;1.90;1.60;;;19.80;46.70;;;;;;5102595;28;20032;-46
2022/01/22 14:01:18;;;;;;;2.00;1.80;;;19.70;46.70;;;;;;5094643;28;20072;-45
2022/01/22 14:03:47;;;;;;;2.60;1.95;;;19.70;46.70;;;;;;5081955;28;20032;-45
2022/01/22 14:06:13;;;;;;;2.20;1.70;;;19.70;46.80;;;;;;5082747;28;20029;-45
2022/01/22 14:08:39;;;;;;;2.42;2.13;;;19.60;46.70;;;;;;5102094;28;20019;-46
2022/01/22 14:11:11;;;;;;;2.95;1.88;;;19.60;46.80;;;;;;5111924;28;20031;-46
2022/01/22 14:13:38;;;;;;;2.33;2.10;;;19.50;46.80;;;;;;5114863;28;20036;-46
2022/01/22 14:16:32;;;;;;;2.92;2.28;;;19.50;46.80;;;;;;5100981;28;20042;-47
2022/01/22 14:18:59;;;;;;;2.53;2.30;;;19.40;46.80;;;;;;5100495;28;20028;-45
2022/01/22 14:21:25;;;;;;;2.60;2.08;;;19.40;46.90;;;;;;5101063;28;20024;-45
2022/01/22 14:23:51;;;;;;;2.67;2.33;;;19.30;46.90;;;;;;5101920;28;20055;-46
2022/01/22 14:26:28;;;;;;;2.78;2.35;;;19.30;46.90;;;;;;5102277;28;20028;-48
2022/01/22 14:28:56;;;;;;;2.97;2.25;;;19.20;47.00;;;;;;5103549;28;20020;-46
2022/01/22 14:31:26;;;;;;;2.50;2.08;;;19.20;47.10;;;;;;5105186;28;20631;-45